Terminal Aerodrome Forecast
Issued by NWS

Home | Current Version | Previous Version | Text Only | Print | Product List | Glossary On
Versions: 1 2 3 4 5 6 7 8 9 10 11 12 13 14 15 16
501
FTUS44 KMAF 252332
TAFPEQ
TAF
KPEQ 252332Z 2600/2624 26023G30KT P6SM FEW120 SCT250
     FM260130 26014G22KT P6SM SCT250
     FM260600 29015G25KT P6SM FEW120
     FM261500 33023G28KT P6SM SCT120=

USA.gov is the U.S. government's official web portal to all federal, state and local government web resources and services.